Time;durP1;ratioP1;P1;durP2;ratioP2;P2;SDS_P1;SDS_P2;PMS_P1;PMS_P2;Temp;Humidity;BMP_temperature;BMP_pressure;BME280_temperature;BME280_humidity;BME280_pressure;Samples;Min_cycle;Max_cycle;Signal;HPM_P1;HPM_P2
2022/01/12 00:00:20;;;;;;;8.40;5.73;;;;;;;;;;5049603;28;20282;-67
2022/01/12 00:02:45;;;;;;;8.73;6.10;;;;;;;;;;5035277;28;20055;-67
2022/01/12 00:05:11;;;;;;;8.83;6.10;;;;;;;;;;5014700;28;20036;-67
2022/01/12 00:07:36;;;;;;;10.83;6.97;;;;;;;;;;5032854;28;20029;-68
2022/01/12 00:10:02;;;;;;;9.20;7.07;;;;;;;;;;5033682;28;20063;-68
2022/01/12 00:12:27;;;;;;;8.90;6.23;;;;;;;;;;5030376;28;20039;-68
2022/01/12 00:14:52;;;;;;;10.00;6.93;;;;;;;;;;5033505;28;20029;-68
2022/01/12 00:17:18;;;;;;;10.43;6.40;;;;;;;;;;5032429;28;20025;-69
2022/01/12 00:19:43;;;;;;;9.53;6.63;;;;;;;;;;5032425;28;20075;-68
2022/01/12 00:22:08;;;;;;;10.37;6.60;;;;;;;;;;5030722;28;20022;-68
2022/01/12 00:35:34;;;;;;;8.77;6.10;;;;;;;;;;5030449;28;20037;-68
2022/01/12 00:37:59;;;;;;;12.57;7.00;;;;;;;;;;5030027;28;20529;-68
2022/01/12 00:40:25;;;;;;;10.23;6.67;;;;;;;;;;5033355;28;20017;-68
2022/01/12 00:42:50;;;;;;;10.23;7.07;;;;;;;;;;5029589;28;20026;-68
2022/01/12 00:45:17;;;;;;;9.43;7.07;;;;;;;;;;5030821;28;20026;-68
2022/01/12 00:47:42;;;;;;;9.10;5.80;;;;;;;;;;5031830;28;20030;-68
2022/01/12 00:50:08;;;;;;;10.50;7.13;;;;;;;;;;5026987;28;20477;-68
2022/01/12 00:52:33;;;;;;;9.40;6.97;;;;;;;;;;5032606;28;20037;-68
2022/01/12 00:54:58;;;;;;;11.73;6.77;;;;;;;;;;5015253;28;20037;-68
2022/01/12 00:57:23;;;;;;;9.83;6.33;;;;;;;;;;5030977;28;20037;-68
2022/01/12 00:59:48;;;;;;;8.27;6.57;;;;;;;;;;5031663;28;20021;-68
2022/01/12 01:02:14;;;;;;;9.73;7.03;;;;;;;;;;5032070;28;20021;-68
2022/01/12 01:04:39;;;;;;;10.40;7.43;;;;;;;;;;5031495;28;20112;-68
2022/01/12 01:07:04;;;;;;;10.30;7.30;;;;;;;;;;5032660;28;20167;-68
2022/01/12 01:09:31;;;;;;;12.43;7.27;;;;;;;;;;5024673;28;20520;-68
2022/01/12 01:11:56;;;;;;;9.53;6.57;;;;;;;;;;5035932;28;20112;-68
2022/01/12 01:14:33;;;;;;;8.93;6.50;;;;;;;;;;5028487;28;20064;-68
2022/01/12 01:25:32;;;;;;;9.17;6.43;;;;;;;;;;5031544;28;20052;-68
2022/01/12 01:27:57;;;;;;;8.60;6.23;;;;;;;;;;5031754;28;20029;-67
2022/01/12 01:30:23;;;;;;;8.57;6.23;;;;;;;;;;5028791;28;20449;-68
2022/01/12 01:32:49;;;;;;;9.57;6.67;;;;;;;;;;5031265;28;20102;-68
2022/01/12 01:35:14;;;;;;;9.77;6.70;;;;;;;;;;5031062;28;20029;-68
2022/01/12 01:37:41;;;;;;;10.30;7.50;;;;;;;;;;5032164;28;20110;-68
2022/01/12 01:40:10;;;;;;;12.00;6.50;;;;;;;;;;5014221;28;20033;-68
2022/01/12 01:43:42;;;;;;;9.30;6.57;;;;;;;;;;5029138;28;20466;-68
2022/01/12 01:53:43;;;;;;;8.17;5.63;;;;;;;;;;5032659;28;20555;-68
2022/01/12 01:56:08;;;;;;;8.07;6.33;;;;;;;;;;5031058;28;20025;-68
2022/01/12 01:58:33;;;;;;;9.77;6.53;;;;;;;;;;5030344;28;20450;-68
2022/01/12 02:00:59;;;;;;;8.27;6.13;;;;;;;;;;5030258;28;20033;-68
2022/01/12 02:03:27;;;;;;;11.90;7.03;;;;;;;;;;5014159;28;20462;-67
2022/01/12 02:05:52;;;;;;;9.47;6.03;;;;;;;;;;5029574;28;20017;-68
2022/01/12 02:08:17;;;;;;;8.67;6.03;;;;;;;;;;5031712;28;20025;-68
2022/01/12 02:10:42;;;;;;;8.27;6.17;;;;;;;;;;5029591;28;20033;-68
2022/01/12 02:13:09;;;;;;;9.93;5.73;;;;;;;;;;5029212;28;20108;-68
2022/01/12 02:15:34;;;;;;;10.10;6.43;;;;;;;;;;5031640;28;20028;-68
2022/01/12 02:18:10;;;;;;;8.50;5.83;;;;;;;;;;5030047;28;20026;-67
2022/01/12 02:37:17;;;;;;;8.20;6.07;;;;;;;;;;5031543;28;20095;-68
2022/01/12 02:39:56;;;;;;;7.23;5.50;;;;;;;;;;5028859;28;20049;-68
2022/01/12 02:42:23;;;;;;;8.40;5.67;;;;;;;;;;5027846;28;20022;-68
2022/01/12 02:55:43;;;;;;;7.17;5.43;;;;;;;;;;5012260;28;20092;-68
2022/01/12 02:58:09;;;;;;;7.13;5.20;;;;;;;;;;5028566;28;20440;-68
2022/01/12 03:03:22;;;;;;;9.80;5.83;;;;;;;;;;5030687;28;20164;-68
2022/01/12 03:05:56;;;;;;;6.80;5.27;;;;;;;;;;5014401;28;20026;-68
2022/01/12 03:08:24;;;;;;;7.43;5.57;;;;;;;;;;5031245;28;20022;-68
2022/01/12 03:10:49;;;;;;;9.33;6.17;;;;;;;;;;5028368;28;20056;-68
2022/01/12 03:13:14;;;;;;;8.83;5.77;;;;;;;;;;5030917;28;20216;-68
2022/01/12 03:15:41;;;;;;;9.27;6.23;;;;;;;;;;5016091;28;20390;-68
2022/01/12 03:18:06;;;;;;;7.87;5.63;;;;;;;;;;5017277;28;20033;-68
2022/01/12 03:20:32;;;;;;;7.97;5.57;;;;;;;;;;5034586;28;20117;-68
2022/01/12 03:22:57;;;;;;;10.50;6.80;;;;;;;;;;5033383;28;20085;-68
2022/01/12 03:25:22;;;;;;;9.03;5.77;;;;;;;;;;5017317;28;20474;-68
2022/01/12 03:27:49;;;;;;;9.37;5.57;;;;;;;;;;5033793;28;20022;-68
2022/01/12 03:30:15;;;;;;;8.53;6.13;;;;;;;;;;5033482;28;20401;-68
2022/01/12 03:32:45;;;;;;;7.37;5.67;;;;;;;;;;5032590;28;20034;-68
2022/01/12 03:35:24;;;;;;;9.80;5.87;;;;;;;;;;5034956;28;20029;-68
2022/01/12 03:38:19;;;;;;;9.83;6.50;;;;;;;;;;5034417;28;20512;-68
2022/01/12 03:40:40;;;;;;;10.53;6.00;;;;;;;;;;5013600;28;20040;-68
2022/01/12 03:43:05;;;;;;;9.10;6.07;;;;;;;;;;5030504;28;20398;-68
2022/01/12 03:45:30;;;;;;;7.30;5.80;;;;;;;;;;5033102;28;20052;-68
2022/01/12 03:47:55;;;;;;;9.93;6.33;;;;;;;;;;5031201;28;20104;-68
2022/01/12 03:50:21;;;;;;;8.63;5.83;;;;;;;;;;5033184;28;20033;-68
2022/01/12 03:52:46;;;;;;;9.37;6.40;;;;;;;;;;5033475;28;20049;-68
2022/01/12 03:55:11;;;;;;;8.37;6.30;;;;;;;;;;5017295;28;20043;-68
2022/01/12 03:57:36;;;;;;;9.43;6.60;;;;;;;;;;5034079;28;20036;-69
2022/01/12 04:00:03;;;;;;;9.93;7.20;;;;;;;;;;5033026;28;20033;-68
2022/01/12 04:02:29;;;;;;;8.33;6.00;;;;;;;;;;5034284;28;20104;-68
2022/01/12 04:05:27;;;;;;;9.07;5.87;;;;;;;;;;5016229;28;20541;-68
2022/01/12 04:10:37;;;;;;;8.30;6.13;;;;;;;;;;5040255;28;20036;-68
2022/01/12 04:13:02;;;;;;;9.20;6.57;;;;;;;;;;5032486;28;20033;-68
2022/01/12 04:15:27;;;;;;;9.03;6.20;;;;;;;;;;5016095;28;20036;-68
2022/01/12 04:17:52;;;;;;;8.00;6.60;;;;;;;;;;5033755;28;20029;-68
2022/01/12 04:20:18;;;;;;;7.73;6.07;;;;;;;;;;5033953;28;20075;-68
2022/01/12 04:25:27;;;;;;;10.10;6.77;;;;;;;;;;5036316;28;20054;-68
2022/01/12 04:27:53;;;;;;;8.90;6.57;;;;;;;;;;5033006;28;20033;-68
2022/01/12 04:30:18;;;;;;;10.50;7.30;;;;;;;;;;5032273;28;20033;-67
2022/01/12 04:32:44;;;;;;;9.77;5.90;;;;;;;;;;5016369;28;20044;-67
2022/01/12 04:35:10;;;;;;;8.13;5.80;;;;;;;;;;5031763;28;20025;-67
2022/01/12 04:37:35;;;;;;;9.30;6.60;;;;;;;;;;5033263;28;20022;-67
2022/01/12 04:40:01;;;;;;;9.83;6.33;;;;;;;;;;5030269;28;20024;-67
2022/01/12 04:42:26;;;;;;;10.27;7.83;;;;;;;;;;5028238;28;20033;-67
2022/01/12 04:45:00;;;;;;;11.60;6.57;;;;;;;;;;5033479;28;20378;-67
2022/01/12 04:47:45;;;;;;;9.17;5.83;;;;;;;;;;5031713;28;20033;-67
2022/01/12 04:50:11;;;;;;;10.03;6.50;;;;;;;;;;5033344;28;20033;-68
2022/01/12 04:52:36;;;;;;;8.93;5.87;;;;;;;;;;5015160;28;20468;-68
2022/01/12 04:55:01;;;;;;;8.90;6.30;;;;;;;;;;5032175;28;20038;-67
2022/01/12 04:57:26;;;;;;;9.77;6.67;;;;;;;;;;5031863;28;20113;-67
2022/01/12 05:00:05;;;;;;;8.33;6.10;;;;;;;;;;5014059;28;20521;-67
2022/01/12 05:08:11;;;;;;;9.20;6.47;;;;;;;;;;5025890;28;20091;-67
2022/01/12 05:13:23;;;;;;;10.07;6.63;;;;;;;;;;5032278;28;20436;-67
2022/01/12 05:15:48;;;;;;;7.17;5.83;;;;;;;;;;5031710;28;20033;-68
2022/01/12 05:18:13;;;;;;;7.67;5.60;;;;;;;;;;5029879;28;20048;-67
2022/01/12 05:20:38;;;;;;;8.23;5.87;;;;;;;;;;5031174;28;20075;-67
2022/01/12 05:23:04;;;;;;;7.70;5.50;;;;;;;;;;5031718;28;20014;-67
2022/01/12 05:25:29;;;;;;;8.27;5.70;;;;;;;;;;5016585;28;20068;-67
2022/01/12 05:27:54;;;;;;;9.00;6.47;;;;;;;;;;5031720;28;20026;-67
2022/01/12 05:30:19;;;;;;;8.97;6.10;;;;;;;;;;5014501;28;20117;-67
2022/01/12 05:32:46;;;;;;;9.30;6.10;;;;;;;;;;5014735;28;20037;-68
2022/01/12 05:35:12;;;;;;;8.77;5.93;;;;;;;;;;5030422;28;20056;-68
2022/01/12 05:37:38;;;;;;;9.50;6.33;;;;;;;;;;5030213;28;20112;-68
2022/01/12 05:40:05;;;;;;;9.80;6.70;;;;;;;;;;5031620;28;20104;-69
2022/01/12 05:42:31;;;;;;;9.70;6.60;;;;;;;;;;5027893;28;20025;-68
2022/01/12 05:44:56;;;;;;;7.50;5.87;;;;;;;;;;5031076;28;20036;-68
2022/01/12 05:47:39;;;;;;;10.70;7.03;;;;;;;;;;5031539;28;20044;-68
2022/01/12 05:50:04;;;;;;;7.97;6.70;;;;;;;;;;5047067;28;20017;-67
2022/01/12 05:52:30;;;;;;;9.53;6.17;;;;;;;;;;5012125;28;20090;-68
2022/01/12 05:54:55;;;;;;;9.10;6.40;;;;;;;;;;5032209;28;20503;-67
2022/01/12 05:57:20;;;;;;;7.77;5.90;;;;;;;;;;5030580;28;20108;-68
2022/01/12 05:59:45;;;;;;;9.47;6.53;;;;;;;;;;5030101;28;20029;-67
2022/01/12 06:02:11;;;;;;;9.70;6.93;;;;;;;;;;5032671;28;20017;-67
2022/01/12 06:04:36;;;;;;;8.97;5.90;;;;;;;;;;5031065;28;20029;-67
2022/01/12 06:07:02;;;;;;;8.57;6.13;;;;;;;;;;5028726;28;20103;-68
2022/01/12 06:09:27;;;;;;;8.00;6.10;;;;;;;;;;5013740;28;20546;-67
2022/01/12 06:11:53;;;;;;;7.13;6.10;;;;;;;;;;5026007;28;20022;-68
2022/01/12 06:14:20;;;;;;;7.67;6.10;;;;;;;;;;5029786;28;20036;-68
2022/01/12 06:16:45;;;;;;;9.30;5.33;;;;;;;;;;5031772;28;20021;-67
2022/01/12 06:19:10;;;;;;;9.13;5.43;;;;;;;;;;5030231;28;20389;-68
2022/01/12 06:21:35;;;;;;;7.93;6.07;;;;;;;;;;5013520;28;20063;-68
2022/01/12 06:24:01;;;;;;;8.03;5.63;;;;;;;;;;5045544;28;20417;-68
2022/01/12 06:26:27;;;;;;;8.87;6.20;;;;;;;;;;5031872;28;20121;-67
2022/01/12 06:29:14;;;;;;;9.47;6.23;;;;;;;;;;5029930;28;20112;-67
2022/01/12 06:31:38;;;;;;;8.07;5.73;;;;;;;;;;5031045;28;20102;-67
2022/01/12 06:34:04;;;;;;;11.23;6.20;;;;;;;;;;5030088;28;20060;-67
2022/01/12 06:36:29;;;;;;;8.63;6.23;;;;;;;;;;5030030;28;20128;-67
2022/01/12 06:38:54;;;;;;;8.07;5.37;;;;;;;;;;5029935;28;20115;-67
2022/01/12 06:41:20;;;;;;;8.00;5.97;;;;;;;;;;5010254;28;20049;-67
2022/01/12 06:43:46;;;;;;;7.43;5.60;;;;;;;;;;5039637;28;20030;-68
2022/01/12 06:46:11;;;;;;;9.53;6.30;;;;;;;;;;5030353;28;20087;-68
2022/01/12 06:48:37;;;;;;;8.50;5.97;;;;;;;;;;5031866;28;20024;-67
2022/01/12 06:51:03;;;;;;;8.53;6.33;;;;;;;;;;5034938;28;20378;-68
2022/01/12 06:53:29;;;;;;;10.90;7.07;;;;;;;;;;5033881;28;20049;-68
2022/01/12 06:55:54;;;;;;;11.37;6.43;;;;;;;;;;5034549;28;20025;-68
2022/01/12 06:58:19;;;;;;;9.97;7.50;;;;;;;;;;5049540;28;20034;-68
2022/01/12 07:00:45;;;;;;;9.37;6.17;;;;;;;;;;5033711;28;20104;-68
2022/01/12 07:03:10;;;;;;;9.03;6.87;;;;;;;;;;5017849;28;20534;-68
2022/01/12 07:05:36;;;;;;;8.57;7.00;;;;;;;;;;5015660;28;20017;-68
2022/01/12 07:08:01;;;;;;;10.13;6.43;;;;;;;;;;5026142;28;20025;-69
2022/01/12 07:10:26;;;;;;;11.00;7.80;;;;;;;;;;5026317;28;20028;-68
2022/01/12 07:12:51;;;;;;;10.87;7.77;;;;;;;;;;5039262;28;20033;-68
2022/01/12 07:15:17;;;;;;;10.57;7.30;;;;;;;;;;5017003;28;20037;-67
2022/01/12 07:17:42;;;;;;;11.63;7.70;;;;;;;;;;5033978;28;20466;-67
2022/01/12 07:20:08;;;;;;;12.30;7.20;;;;;;;;;;5034279;28;20462;-67
2022/01/12 07:22:33;;;;;;;11.67;7.67;;;;;;;;;;5036700;28;20033;-67
2022/01/12 07:24:58;;;;;;;10.90;7.60;;;;;;;;;;5013182;28;20025;-67
2022/01/12 07:27:24;;;;;;;10.43;7.73;;;;;;;;;;5030751;28;20481;-67
2022/01/12 07:29:49;;;;;;;9.03;7.63;;;;;;;;;;5016653;28;20040;-68
2022/01/12 07:32:14;;;;;;;11.63;7.93;;;;;;;;;;5033141;28;20398;-67
2022/01/12 07:34:39;;;;;;;11.33;8.40;;;;;;;;;;5033504;28;20038;-68
2022/01/12 07:37:05;;;;;;;9.60;7.20;;;;;;;;;;5033984;28;20025;-67
2022/01/12 07:39:31;;;;;;;13.30;8.93;;;;;;;;;;5016725;28;20027;-67
2022/01/12 07:41:56;;;;;;;12.13;8.10;;;;;;;;;;5028009;28;20096;-67
2022/01/12 07:44:21;;;;;;;12.60;7.70;;;;;;;;;;5029249;28;20485;-68
2022/01/12 07:46:47;;;;;;;10.67;8.27;;;;;;;;;;5029761;28;20025;-67
2022/01/12 07:49:12;;;;;;;11.67;8.07;;;;;;;;;;5034268;28;20029;-66
2022/01/12 07:51:37;;;;;;;9.90;8.13;;;;;;;;;;5031614;28;20107;-67
2022/01/12 07:54:02;;;;;;;12.77;9.03;;;;;;;;;;5018176;28;20489;-67
2022/01/12 07:56:27;;;;;;;12.67;8.70;;;;;;;;;;5017112;28;20398;-67
2022/01/12 07:58:53;;;;;;;12.60;8.53;;;;;;;;;;5012970;28;20026;-68
2022/01/12 08:01:18;;;;;;;12.80;8.80;;;;;;;;;;5026870;28;20033;-67
2022/01/12 08:03:43;;;;;;;10.37;8.47;;;;;;;;;;5029383;28;20032;-67
2022/01/12 08:06:08;;;;;;;11.77;8.63;;;;;;;;;;5032330;28;20057;-67
2022/01/12 08:08:34;;;;;;;9.47;7.37;;;;;;;;;;5047009;28;20019;-67
2022/01/12 08:10:59;;;;;;;9.50;7.83;;;;;;;;;;5029687;28;20033;-68
2022/01/12 08:13:24;;;;;;;11.40;7.63;;;;;;;;;;5029163;28;20436;-68
2022/01/12 08:15:49;;;;;;;11.03;7.80;;;;;;;;;;5026600;28;20029;-68
2022/01/12 08:18:14;;;;;;;13.20;7.57;;;;;;;;;;5031876;28;20026;-68
2022/01/12 08:20:41;;;;;;;13.60;8.33;;;;;;;;;;5032371;28;20068;-68
2022/01/12 08:23:07;;;;;;;10.90;8.33;;;;;;;;;;5033368;28;20049;-67
2022/01/12 08:25:32;;;;;;;10.37;8.13;;;;;;;;;;5032767;28;20071;-67
2022/01/12 08:27:57;;;;;;;11.30;7.80;;;;;;;;;;5032319;28;20086;-69
2022/01/12 08:30:28;;;;;;;10.87;7.70;;;;;;;;;;5033227;28;20033;-67
2022/01/12 08:32:54;;;;;;;11.00;8.10;;;;;;;;;;5031548;28;20068;-67
2022/01/12 08:35:19;;;;;;;11.63;7.47;;;;;;;;;;5033253;28;20064;-67
2022/01/12 08:37:45;;;;;;;10.63;7.63;;;;;;;;;;5033319;28;20021;-67
2022/01/12 08:40:11;;;;;;;12.27;8.20;;;;;;;;;;5031733;28;20017;-67
2022/01/12 08:42:37;;;;;;;9.67;7.17;;;;;;;;;;5027619;28;20041;-67
2022/01/12 08:45:03;;;;;;;9.70;7.07;;;;;;;;;;5023027;28;20021;-68
2022/01/12 08:47:29;;;;;;;8.80;6.20;;;;;;;;;;5031387;28;20248;-64
2022/01/12 08:49:54;;;;;;;11.27;6.73;;;;;;;;;;5032474;28;20156;-65
2022/01/12 08:52:21;;;;;;;13.07;7.57;;;;;;;;;;5032508;28;20406;-69
2022/01/12 08:54:46;;;;;;;10.97;7.20;;;;;;;;;;5031661;28;20033;-66
2022/01/12 08:57:11;;;;;;;12.37;6.90;;;;;;;;;;5031273;28;20025;-65
2022/01/12 08:59:37;;;;;;;9.27;6.57;;;;;;;;;;5031679;28;20030;-65
2022/01/12 09:02:02;;;;;;;9.13;6.40;;;;;;;;;;5031758;28;20021;-66
2022/01/12 09:04:27;;;;;;;11.27;6.80;;;;;;;;;;5033073;28;20075;-65
2022/01/12 09:06:53;;;;;;;8.80;5.70;;;;;;;;;;5031179;28;20037;-66
2022/01/12 09:09:18;;;;;;;8.97;6.17;;;;;;;;;;5030074;28;20429;-66
2022/01/12 09:11:44;;;;;;;10.03;6.13;;;;;;;;;;5027560;28;20362;-66
2022/01/12 09:14:09;;;;;;;7.10;5.37;;;;;;;;;;5031358;28;20033;-66
2022/01/12 09:16:35;;;;;;;8.63;6.13;;;;;;;;;;5028303;28;20357;-66
2022/01/12 09:19:00;;;;;;;10.30;5.77;;;;;;;;;;5025957;28;20108;-66
2022/01/12 09:21:25;;;;;;;9.40;6.17;;;;;;;;;;5027605;28;20040;-66
2022/01/12 09:23:50;;;;;;;10.37;5.53;;;;;;;;;;5022033;28;20029;-66
2022/01/12 09:26:16;;;;;;;9.30;6.20;;;;;;;;;;5019270;28;20556;-66
2022/01/12 09:28:41;;;;;;;8.87;6.13;;;;;;;;;;5027074;28;20025;-66
2022/01/12 09:31:06;;;;;;;9.63;6.07;;;;;;;;;;5018850;28;20372;-66
2022/01/12 09:33:32;;;;;;;8.68;5.63;;;;;;;;;;5042244;28;20048;-66
2022/01/12 09:35:58;;;;;;;8.45;5.30;;;;;;;;;;5032353;28;20032;-66
2022/01/12 09:38:23;;;;;;;7.85;5.80;;;;;;;;;;5030669;28;20017;-66
2022/01/12 09:40:54;;;;;;;9.13;6.03;;;;;;;;;;5027448;28;20026;-66
2022/01/12 09:43:22;;;;;;;7.20;5.50;;;;;;;;;;5026684;28;20067;-66
2022/01/12 09:45:49;;;;;;;6.80;5.18;;;;;;;;;;5022080;28;20029;-66
2022/01/12 09:48:15;;;;;;;7.80;5.43;;;;;;;;;;5031787;28;20025;-66
2022/01/12 09:50:40;;;;;;;7.63;5.63;;;;;;;;;;5030334;28;20397;-66
2022/01/12 09:53:06;;;;;;;9.32;5.30;;;;;;;;;;5029661;28;20132;-66
2022/01/12 09:55:32;;;;;;;8.80;5.43;;;;;;;;;;5031703;28;20064;-66
2022/01/12 09:57:57;;;;;;;8.15;5.45;;;;;;;;;;5030707;28;20410;-66
2022/01/12 10:00:25;;;;;;;9.43;6.20;;;;;;;;;;5031697;28;20046;-66
2022/01/12 10:02:50;;;;;;;7.80;5.43;;;;;;;;;;5031368;28;20028;-66
2022/01/12 10:05:16;;;;;;;8.95;5.57;;;;;;;;;;5030864;28;20025;-66
2022/01/12 10:07:41;;;;;;;7.07;5.20;;;;;;;;;;5030024;28;20060;-66
2022/01/12 10:10:08;;;;;;;7.53;5.13;;;;;;;;;;5013759;28;20032;-66
2022/01/12 10:12:33;;;;;;;6.80;4.65;;;;;;;;;;5016036;28;20056;-65
2022/01/12 10:15:00;;;;;;;8.90;4.53;;;;;;;;;;5014463;28;20471;-66
2022/01/12 10:17:42;;;;;;;7.80;4.70;;;;;;;;;;5025224;28;20026;-66
2022/01/12 10:20:09;;;;;;;8.25;5.15;;;;;;;;;;5023958;28;20021;-66
2022/01/12 10:22:35;;;;;;;7.80;5.40;;;;;;;;;;5023218;28;20100;-66
2022/01/12 10:25:01;;;;;;;6.47;4.93;;;;;;;;;;5029907;28;20049;-66
2022/01/12 10:27:27;;;;;;;8.18;4.75;;;;;;;;;;5033343;28;20104;-67
2022/01/12 10:29:56;;;;;;;7.50;5.07;;;;;;;;;;5015615;28;20954;-67
2022/01/12 10:32:21;;;;;;;7.13;4.68;;;;;;;;;;5030110;28;20064;-67
2022/01/12 10:34:47;;;;;;;6.60;4.57;;;;;;;;;;5030032;28;20068;-66
2022/01/12 10:37:17;;;;;;;6.47;4.50;;;;;;;;;;5031312;28;20033;-67
2022/01/12 10:39:43;;;;;;;6.30;4.25;;;;;;;;;;5029510;28;20506;-67
2022/01/12 10:42:10;;;;;;;8.65;4.70;;;;;;;;;;5025861;28;20025;-67
2022/01/12 10:44:36;;;;;;;7.25;5.00;;;;;;;;;;5027647;28;20521;-66
2022/01/12 10:47:11;;;;;;;6.90;5.03;;;;;;;;;;5031314;28;20021;-67
2022/01/12 10:49:43;;;;;;;6.80;5.13;;;;;;;;;;5030490;28;20144;-67
2022/01/12 10:52:10;;;;;;;6.57;5.03;;;;;;;;;;5028940;28;20030;-66
2022/01/12 10:54:58;;;;;;;6.97;4.68;;;;;;;;;;5030942;28;20053;-66
2022/01/12 10:57:24;;;;;;;6.38;4.80;;;;;;;;;;5021513;28;20061;-67
2022/01/12 10:59:59;;;;;;;7.43;4.03;;;;;;;;;;5026925;28;20021;-66
2022/01/12 11:02:24;;;;;;;7.10;5.40;;;;;;;;;;5032014;28;20057;-66
2022/01/12 11:04:50;;;;;;;9.15;4.80;;;;;;;;;;5029982;28;20056;-66
2022/01/12 11:07:15;;;;;;;6.38;5.13;;;;;;;;;;5022421;28;20445;-66
2022/01/12 11:09:40;;;;;;;5.57;4.30;;;;;;;;;;5030599;28;20482;-67
2022/01/12 11:12:06;;;;;;;7.22;4.50;;;;;;;;;;5025005;28;20055;-65
2022/01/12 11:14:31;;;;;;;6.40;3.58;;;;;;;;;;5028699;28;20067;-66
2022/01/12 11:16:56;;;;;;;5.75;4.00;;;;;;;;;;5030007;28;20021;-66
2022/01/12 11:19:22;;;;;;;5.63;4.05;;;;;;;;;;5030180;28;20359;-66
2022/01/12 11:21:56;;;;;;;5.70;4.20;;;;;;;;;;5030177;28;20034;-66
2022/01/12 11:24:24;;;;;;;9.03;4.60;;;;;;;;;;5029244;28;20022;-66
2022/01/12 11:26:51;;;;;;;4.95;3.13;;;;;;;;;;5029132;28;20037;-66
2022/01/12 11:29:28;;;;;;;6.07;4.00;;;;;;;;;;5018963;28;20029;-66
2022/01/12 11:32:03;;;;;;;5.03;4.00;;;;;;;;;;5025306;28;20482;-66
2022/01/12 11:34:28;;;;;;;5.07;3.90;;;;;;;;;;5031744;28;20021;-66
2022/01/12 11:36:54;;;;;;;6.28;4.25;;;;;;;;;;5032658;28;20482;-67
2022/01/12 11:39:20;;;;;;;5.75;4.25;;;;;;;;;;5032927;28;20040;-66
2022/01/12 11:41:49;;;;;;;6.03;3.95;;;;;;;;;;5030642;28;20234;-66
2022/01/12 11:44:22;;;;;;;6.28;4.30;;;;;;;;;;5034593;28;20020;-66
2022/01/12 11:46:55;;;;;;;6.70;5.28;;;;;;;;;;5034237;28;20501;-64
2022/01/12 11:49:25;;;;;;;7.75;4.95;;;;;;;;;;5029462;28;20068;-64
2022/01/12 11:51:51;;;;;;;5.88;4.25;;;;;;;;;;5032196;28;20056;-71
2022/01/12 11:54:20;;;;;;;5.47;4.22;;;;;;;;;;5033268;28;20111;-67
2022/01/12 11:56:59;;;;;;;6.63;4.35;;;;;;;;;;5031948;28;20039;-67
2022/01/12 11:59:26;;;;;;;5.60;4.28;;;;;;;;;;5026096;28;20496;-73
2022/01/12 12:01:53;;;;;;;7.05;5.00;;;;;;;;;;5034100;28;20049;-67
2022/01/12 12:04:29;;;;;;;6.28;4.43;;;;;;;;;;5033141;28;20017;-65
2022/01/12 12:07:07;;;;;;;8.73;4.97;;;;;;;;;;5033455;28;20035;-70
2022/01/12 12:09:35;;;;;;;10.20;4.47;;;;;;;;;;5022833;28;20021;-69
2022/01/12 12:12:01;;;;;;;9.18;5.38;;;;;;;;;;5028992;28;20545;-71
2022/01/12 12:14:27;;;;;;;6.13;4.63;;;;;;;;;;5025817;28;20113;-68
2022/01/12 12:16:52;;;;;;;6.15;4.90;;;;;;;;;;5031676;28;20033;-71
2022/01/12 12:19:18;;;;;;;6.32;4.72;;;;;;;;;;5034155;28;20032;-68
2022/01/12 12:21:47;;;;;;;5.28;4.78;;;;;;;;;;5009005;28;20506;-68
2022/01/12 12:24:13;;;;;;;6.68;5.15;;;;;;;;;;5023953;28;20060;-66
2022/01/12 12:26:43;;;;;;;6.47;5.25;;;;;;;;;;5014492;28;20029;-67
2022/01/12 12:29:09;;;;;;;6.90;5.07;;;;;;;;;;5022670;28;20036;-70
2022/01/12 12:31:34;;;;;;;8.00;5.00;;;;;;;;;;5025876;28;20021;-70
2022/01/12 12:34:03;;;;;;;6.97;5.68;;;;;;;;;;5024236;28;20030;-78
2022/01/12 12:36:28;;;;;;;6.82;4.85;;;;;;;;;;5018207;28;20068;-67
2022/01/12 12:39:03;;;;;;;6.28;5.03;;;;;;;;;;5032296;28;20480;-67
2022/01/12 12:41:36;;;;;;;6.57;5.25;;;;;;;;;;5027201;28;20493;-67
2022/01/12 12:44:01;;;;;;;6.07;5.18;;;;;;;;;;5023014;28;20056;-76
2022/01/12 12:46:26;;;;;;;8.13;5.32;;;;;;;;;;5026329;28;20058;-75
2022/01/12 12:48:51;;;;;;;7.50;4.88;;;;;;;;;;5029928;28;20024;-68
2022/01/12 12:51:17;;;;;;;7.03;5.15;;;;;;;;;;5028585;28;20060;-68
2022/01/12 12:53:52;;;;;;;7.82;4.65;;;;;;;;;;5033018;28;20041;-72
2022/01/12 12:56:20;;;;;;;8.43;5.40;;;;;;;;;;5031953;28;20091;-67
2022/01/12 12:58:53;;;;;;;7.25;5.50;;;;;;;;;;5031686;28;20021;-70
2022/01/12 13:01:19;;;;;;;7.13;4.88;;;;;;;;;;5027740;28;20100;-72
2022/01/12 13:03:49;;;;;;;7.13;5.50;;;;;;;;;;5011748;28;20074;-70
2022/01/12 13:06:43;;;;;;;7.43;5.13;;;;;;;;;;5015554;28;20093;-72
2022/01/12 13:09:09;;;;;;;6.95;5.25;;;;;;;;;;5038820;28;20493;-68
2022/01/12 13:11:36;;;;;;;7.85;5.40;;;;;;;;;;5017940;28;20613;-68
2022/01/12 13:14:09;;;;;;;7.30;5.50;;;;;;;;;;5031387;28;20436;-66
2022/01/12 13:16:35;;;;;;;7.43;5.70;;;;;;;;;;5032382;28;20041;-67
2022/01/12 13:19:06;;;;;;;8.43;5.88;;;;;;;;;;5022628;28;20500;-67
2022/01/12 13:21:33;;;;;;;7.95;5.75;;;;;;;;;;5030874;28;20028;-66
2022/01/12 13:23:58;;;;;;;7.65;5.40;;;;;;;;;;5031357;28;20013;-66
2022/01/12 13:26:25;;;;;;;9.82;5.82;;;;;;;;;;5032697;28;20029;-67
2022/01/12 13:28:51;;;;;;;7.47;5.55;;;;;;;;;;5032501;28;20124;-67
2022/01/12 13:31:17;;;;;;;9.27;5.82;;;;;;;;;;5032738;28;20107;-66
2022/01/12 13:33:45;;;;;;;6.72;5.38;;;;;;;;;;5030738;28;20093;-67
2022/01/12 13:36:12;;;;;;;9.77;5.80;;;;;;;;;;5035227;28;20075;-67
2022/01/12 13:38:37;;;;;;;6.32;4.95;;;;;;;;;;5036283;28;20437;-67
2022/01/12 13:41:10;;;;;;;7.05;5.05;;;;;;;;;;5027863;28;20029;-67
2022/01/12 13:43:36;;;;;;;8.32;6.07;;;;;;;;;;5030057;28;20025;-67
2022/01/12 13:46:04;;;;;;;7.68;5.30;;;;;;;;;;5031571;28;20111;-67
2022/01/12 13:48:31;;;;;;;5.50;4.28;;;;;;;;;;5043480;28;20044;-67
2022/01/12 13:50:58;;;;;;;6.35;5.18;;;;;;;;;;5032219;28;20033;-67
2022/01/12 13:53:33;;;;;;;8.25;5.68;;;;;;;;;;5029970;28;20053;-67
2022/01/12 13:55:58;;;;;;;9.02;4.72;;;;;;;;;;5027089;28;20026;-67
2022/01/12 13:58:27;;;;;;;8.23;5.88;;;;;;;;;;5030382;28;20548;-67
2022/01/12 14:01:19;;;;;;;6.22;4.85;;;;;;;;;;5030362;28;20039;-67
2022/01/12 14:03:52;;;;;;;8.48;5.30;;;;;;;;;;5028057;28;20502;-67
2022/01/12 14:06:18;;;;;;;7.82;5.57;;;;;;;;;;5031275;28;20018;-66
2022/01/12 14:08:52;;;;;;;8.63;5.55;;;;;;;;;;5040439;28;20473;-66
2022/01/12 14:11:17;;;;;;;9.40;5.95;;;;;;;;;;5030022;28;20079;-67
2022/01/12 14:13:42;;;;;;;6.95;5.05;;;;;;;;;;5027039;28;20029;-68
2022/01/12 14:16:11;;;;;;;8.85;5.90;;;;;;;;;;5030373;28;20021;-67
2022/01/12 14:18:36;;;;;;;7.80;5.70;;;;;;;;;;5030502;28;20067;-67
2022/01/12 14:21:11;;;;;;;8.63;6.20;;;;;;;;;;5031084;28;20052;-67
2022/01/12 14:23:36;;;;;;;;;;;;;;;;;;5031170;28;20025;-67
2022/01/12 14:26:02;;;;;;;6.75;5.35;;;;;;;;;;5031667;28;19916;-66
2022/01/12 14:28:28;;;;;;;7.85;5.60;;;;;;;;;;5030299;28;20493;-66
2022/01/12 14:30:53;;;;;;;10.27;5.90;;;;;;;;;;5030644;28;20021;-66
2022/01/12 14:33:19;;;;;;;8.48;5.55;;;;;;;;;;5029994;28;20029;-67
2022/01/12 14:35:44;;;;;;;8.23;5.05;;;;;;;;;;5029534;28;20032;-66
2022/01/12 14:38:09;;;;;;;6.15;5.03;;;;;;;;;;5032090;28;20022;-67
2022/01/12 14:40:35;;;;;;;6.72;4.63;;;;;;;;;;5032384;28;20488;-67
2022/01/12 14:43:02;;;;;;;7.25;5.13;;;;;;;;;;5028399;28;20478;-66
2022/01/12 14:45:28;;;;;;;8.15;5.40;;;;;;;;;;5025433;28;20037;-68
2022/01/12 14:47:54;;;;;;;7.32;4.65;;;;;;;;;;5026229;28;20104;-69
2022/01/12 14:50:20;;;;;;;7.45;4.55;;;;;;;;;;5029742;28;20033;-69
2022/01/12 14:52:45;;;;;;;7.75;5.00;;;;;;;;;;5026251;28;20159;-68
2022/01/12 14:55:11;;;;;;;6.55;4.45;;;;;;;;;;5024816;28;20075;-69
2022/01/12 14:57:37;;;;;;;6.70;4.75;;;;;;;;;;5026795;28;20025;-68
2022/01/12 15:00:05;;;;;;;7.47;4.75;;;;;;;;;;5019808;28;20091;-69
2022/01/12 15:02:30;;;;;;;6.43;4.20;;;;;;;;;;5030260;28;20032;-68
2022/01/12 15:04:55;;;;;;;5.20;3.80;;;;;;;;;;5022481;28;20021;-68
2022/01/12 15:07:21;;;;;;;6.65;4.63;;;;;;;;;;5018232;28;20026;-69
2022/01/12 15:09:46;;;;;;;5.50;3.92;;;;;;;;;;5025843;28;20164;-69
2022/01/12 15:12:15;;;;;;;7.70;3.90;;;;;;;;;;5034963;28;20097;-68
2022/01/12 15:17:06;;;;;;;6.70;3.67;;;;;;;;;;5047284;28;20074;-68
2022/01/12 15:19:33;;;;;;;6.20;3.58;;;;;;;;;;5016747;28;20124;-68
2022/01/12 15:21:58;;;;;;;6.43;4.00;;;;;;;;;;5034431;28;20044;-69
2022/01/12 15:24:23;;;;;;;7.07;4.80;;;;;;;;;;5051230;28;20009;-68
2022/01/12 15:26:49;;;;;;;7.28;4.72;;;;;;;;;;5040379;28;20033;-69
2022/01/12 15:29:14;;;;;;;6.47;4.93;;;;;;;;;;5020503;28;20468;-69
2022/01/12 15:31:39;;;;;;;9.00;5.72;;;;;;;;;;5038103;28;20418;-69
2022/01/12 15:34:04;;;;;;;9.70;4.80;;;;;;;;;;5023027;28;20033;-68
2022/01/12 15:36:29;;;;;;;7.88;5.75;;;;;;;;;;5032705;28;20052;-68
2022/01/12 15:38:55;;;;;;;8.88;5.18;;;;;;;;;;5028375;28;20025;-68
2022/01/12 15:41:20;;;;;;;10.30;5.32;;;;;;;;;;5032688;28;20486;-68
2022/01/12 15:43:47;;;;;;;7.90;5.60;;;;;;;;;;5039895;28;20029;-69
2022/01/12 15:46:12;;;;;;;8.65;5.88;;;;;;;;;;5037591;28;20044;-69
2022/01/12 15:48:40;;;;;;;10.18;5.70;;;;;;;;;;5032771;28;20438;-69
2022/01/12 15:51:05;;;;;;;8.25;5.35;;;;;;;;;;5033872;28;20018;-68
2022/01/12 15:53:30;;;;;;;8.40;5.43;;;;;;;;;;5033341;28;20067;-69